sensor_id;sensor_type;location;lat;lon;timestamp;temperature;humidity
75705;DHT22;65807;44.726;37.764;2022-12-08T00:00:40;19.72;49.69
75705;DHT22;65807;44.726;37.764;2022-12-08T00:01:41;19.71;49.69
75705;DHT22;65807;44.726;37.764;2022-12-08T00:02:43;19.72;49.67
75705;DHT22;65807;44.726;37.764;2022-12-08T00:03:44;19.73;49.69
75705;DHT22;65807;44.726;37.764;2022-12-08T00:04:45;19.72;49.66
75705;DHT22;65807;44.726;37.764;2022-12-08T00:06:05;19.71;49.63
75705;DHT22;65807;44.726;37.764;2022-12-08T00:07:25;19.72;49.66
75705;DHT22;65807;44.726;37.764;2022-12-08T00:08:44;19.73;49.63
75705;DHT22;65807;44.726;37.764;2022-12-08T00:10:04;19.72;49.63
75705;DHT22;65807;44.726;37.764;2022-12-08T00:11:10;19.73;49.63
75705;DHT22;65807;44.726;37.764;2022-12-08T00:12:12;19.72;49.66
75705;DHT22;65807;44.726;37.764;2022-12-08T00:13:15;19.72;49.65
75705;DHT22;65807;44.726;37.764;2022-12-08T00:14:16;19.72;49.66
75705;DHT22;65807;44.726;37.764;2022-12-08T00:15:17;19.73;49.66
75705;DHT22;65807;44.726;37.764;2022-12-08T00:16:18;19.73;49.64
75705;DHT22;65807;44.726;37.764;2022-12-08T00:17:20;19.73;49.64
75705;DHT22;65807;44.726;37.764;2022-12-08T00:18:21;19.74;49.66
75705;DHT22;65807;44.726;37.764;2022-12-08T00:19:22;19.74;49.65
75705;DHT22;65807;44.726;37.764;2022-12-08T00:20:24;19.72;49.66
75705;DHT22;65807;44.726;37.764;2022-12-08T00:21:25;19.73;49.65
75705;DHT22;65807;44.726;37.764;2022-12-08T00:22:26;19.73;49.66
75705;DHT22;65807;44.726;37.764;2022-12-08T00:23:28;19.73;49.63
75705;DHT22;65807;44.726;37.764;2022-12-08T00:24:31;19.73;49.66
75705;DHT22;65807;44.726;37.764;2022-12-08T00:25:35;19.73;49.66
75705;DHT22;65807;44.726;37.764;2022-12-08T00:26:37;19.74;49.64
75705;DHT22;65807;44.726;37.764;2022-12-08T00:27:38;19.73;49.67
75705;DHT22;65807;44.726;37.764;2022-12-08T00:28:39;19.74;49.65
75705;DHT22;65807;44.726;37.764;2022-12-08T00:29:41;19.73;49.63
75705;DHT22;65807;44.726;37.764;2022-12-08T00:30:43;19.74;49.66
75705;DHT22;65807;44.726;37.764;2022-12-08T00:31:44;19.74;49.65
75705;DHT22;65807;44.726;37.764;2022-12-08T00:32:45;19.75;49.64
75705;DHT22;65807;44.726;37.764;2022-12-08T00:33:46;19.74;49.61
75705;DHT22;65807;44.726;37.764;2022-12-08T00:34:47;19.75;49.65
75705;DHT22;65807;44.726;37.764;2022-12-08T00:35:49;19.75;49.60
75705;DHT22;65807;44.726;37.764;2022-12-08T00:36:50;19.75;49.61
75705;DHT22;65807;44.726;37.764;2022-12-08T00:37:51;19.75;49.63
75705;DHT22;65807;44.726;37.764;2022-12-08T00:38:52;19.74;49.62
75705;DHT22;65807;44.726;37.764;2022-12-08T00:39:53;19.75;49.62
75705;DHT22;65807;44.726;37.764;2022-12-08T00:40:54;19.75;49.63
75705;DHT22;65807;44.726;37.764;2022-12-08T00:41:56;19.76;49.64
75705;DHT22;65807;44.726;37.764;2022-12-08T00:43:12;19.74;49.63
75705;DHT22;65807;44.726;37.764;2022-12-08T00:44:14;19.74;49.64
75705;DHT22;65807;44.726;37.764;2022-12-08T00:45:15;19.75;49.61
75705;DHT22;65807;44.726;37.764;2022-12-08T00:46:16;19.76;49.62
75705;DHT22;65807;44.726;37.764;2022-12-08T00:47:18;19.77;49.61
75705;DHT22;65807;44.726;37.764;2022-12-08T00:48:19;19.76;49.63
75705;DHT22;65807;44.726;37.764;2022-12-08T00:49:20;19.76;49.61
75705;DHT22;65807;44.726;37.764;2022-12-08T00:50:22;19.76;49.61
75705;DHT22;65807;44.726;37.764;2022-12-08T00:51:23;19.77;49.60
75705;DHT22;65807;44.726;37.764;2022-12-08T00:52:24;19.77;49.60
75705;DHT22;65807;44.726;37.764;2022-12-08T00:53:25;19.75;49.61
75705;DHT22;65807;44.726;37.764;2022-12-08T00:54:26;19.77;49.61
75705;DHT22;65807;44.726;37.764;2022-12-08T00:55:27;19.76;49.61
75705;DHT22;65807;44.726;37.764;2022-12-08T00:56:28;19.76;49.59
75705;DHT22;65807;44.726;37.764;2022-12-08T00:57:30;19.77;49.60
75705;DHT22;65807;44.726;37.764;2022-12-08T00:58:31;19.76;49.63
75705;DHT22;65807;44.726;37.764;2022-12-08T00:59:32;19.77;49.63
75705;DHT22;65807;44.726;37.764;2022-12-08T01:00:33;19.77;49.62
75705;DHT22;65807;44.726;37.764;2022-12-08T01:01:34;19.77;49.60
75705;DHT22;65807;44.726;37.764;2022-12-08T01:02:35;19.76;49.60
75705;DHT22;65807;44.726;37.764;2022-12-08T01:03:36;19.77;49.63
75705;DHT22;65807;44.726;37.764;2022-12-08T01:04:38;19.77;49.59
75705;DHT22;65807;44.726;37.764;2022-12-08T01:05:39;19.77;49.60
75705;DHT22;65807;44.726;37.764;2022-12-08T01:06:40;19.77;49.60
75705;DHT22;65807;44.726;37.764;2022-12-08T01:07:41;19.77;49.63
75705;DHT22;65807;44.726;37.764;2022-12-08T01:08:43;19.77;49.60
75705;DHT22;65807;44.726;37.764;2022-12-08T01:09:44;19.77;49.62
75705;DHT22;65807;44.726;37.764;2022-12-08T01:10:45;19.77;49.60
75705;DHT22;65807;44.726;37.764;2022-12-08T01:11:47;19.77;49.60
75705;DHT22;65807;44.726;37.764;2022-12-08T01:12:48;19.79;49.56
75705;DHT22;65807;44.726;37.764;2022-12-08T01:13:49;19.77;49.60
75705;DHT22;65807;44.726;37.764;2022-12-08T01:14:50;19.79;49.56
75705;DHT22;65807;44.726;37.764;2022-12-08T01:15:51;19.79;49.59
75705;DHT22;65807;44.726;37.764;2022-12-08T01:16:53;19.79;49.58
75705;DHT22;65807;44.726;37.764;2022-12-08T01:17:54;19.80;49.54
75705;DHT22;65807;44.726;37.764;2022-12-08T01:18:56;19.79;49.56
75705;DHT22;65807;44.726;37.764;2022-12-08T01:19:57;19.79;49.55
75705;DHT22;65807;44.726;37.764;2022-12-08T01:21:03;19.77;49.60
75705;DHT22;65807;44.726;37.764;2022-12-08T01:22:04;19.80;49.60
75705;DHT22;65807;44.726;37.764;2022-12-08T01:23:05;19.79;49.55
75705;DHT22;65807;44.726;37.764;2022-12-08T01:24:08;19.79;49.60
75705;DHT22;65807;44.726;37.764;2022-12-08T01:25:10;19.80;49.59
75705;DHT22;65807;44.726;37.764;2022-12-08T01:26:12;19.80;49.58
75705;DHT22;65807;44.726;37.764;2022-12-08T01:27:14;19.80;49.60
75705;DHT22;65807;44.726;37.764;2022-12-08T01:28:16;19.80;49.60
75705;DHT22;65807;44.726;37.764;2022-12-08T01:29:17;19.80;49.58
75705;DHT22;65807;44.726;37.764;2022-12-08T01:30:18;19.80;49.57
75705;DHT22;65807;44.726;37.764;2022-12-08T01:31:20;19.81;49.60
75705;DHT22;65807;44.726;37.764;2022-12-08T01:32:21;19.80;49.56
75705;DHT22;65807;44.726;37.764;2022-12-08T01:33:23;19.79;49.59
75705;DHT22;65807;44.726;37.764;2022-12-08T01:34:24;19.77;49.60
75705;DHT22;65807;44.726;37.764;2022-12-08T01:35:25;19.80;49.60
75705;DHT22;65807;44.726;37.764;2022-12-08T01:36:27;19.80;49.59
75705;DHT22;65807;44.726;37.764;2022-12-08T01:37:28;19.81;49.60
75705;DHT22;65807;44.726;37.764;2022-12-08T01:38:30;19.81;49.59
75705;DHT22;65807;44.726;37.764;2022-12-08T01:39:31;19.80;49.57
75705;DHT22;65807;44.726;37.764;2022-12-08T01:40:32;19.80;49.61
75705;DHT22;65807;44.726;37.764;2022-12-08T01:41:35;19.82;49.56
75705;DHT22;65807;44.726;37.764;2022-12-08T01:42:37;19.82;49.60
75705;DHT22;65807;44.726;37.764;2022-12-08T01:43:58;19.82;49.61
75705;DHT22;65807;44.726;37.764;2022-12-08T01:45:00;19.81;49.60
75705;DHT22;65807;44.726;37.764;2022-12-08T01:46:02;19.80;49.58
75705;DHT22;65807;44.726;37.764;2022-12-08T01:47:03;19.81;49.59
75705;DHT22;65807;44.726;37.764;2022-12-08T01:48:06;19.81;49.60
75705;DHT22;65807;44.726;37.764;2022-12-08T01:50:12;19.81;49.55
75705;DHT22;65807;44.726;37.764;2022-12-08T01:51:15;19.81;49.53
75705;DHT22;65807;44.726;37.764;2022-12-08T01:52:21;19.82;49.56
75705;DHT22;65807;44.726;37.764;2022-12-08T01:53:25;19.82;49.61
75705;DHT22;65807;44.726;37.764;2022-12-08T01:54:28;19.82;49.59
75705;DHT22;65807;44.726;37.764;2022-12-08T01:55:32;19.82;49.56
75705;DHT22;65807;44.726;37.764;2022-12-08T01:56:36;19.82;49.60
75705;DHT22;65807;44.726;37.764;2022-12-08T01:57:44;19.82;49.56
75705;DHT22;65807;44.726;37.764;2022-12-08T01:58:47;19.83;49.56
75705;DHT22;65807;44.726;37.764;2022-12-08T01:59:51;19.83;49.55
75705;DHT22;65807;44.726;37.764;2022-12-08T02:00:53;19.83;49.55
75705;DHT22;65807;44.726;37.764;2022-12-08T02:01:55;19.82;49.54
75705;DHT22;65807;44.726;37.764;2022-12-08T02:02:57;19.83;49.56
75705;DHT22;65807;44.726;37.764;2022-12-08T02:04:00;19.84;49.54
75705;DHT22;65807;44.726;37.764;2022-12-08T02:05:02;19.83;49.56
75705;DHT22;65807;44.726;37.764;2022-12-08T02:06:03;19.82;49.57
75705;DHT22;65807;44.726;37.764;2022-12-08T02:07:04;19.84;49.58
75705;DHT22;65807;44.726;37.764;2022-12-08T02:08:07;19.82;49.57
75705;DHT22;65807;44.726;37.764;2022-12-08T02:09:09;19.84;49.60
75705;DHT22;65807;44.726;37.764;2022-12-08T02:10:10;19.84;49.59
75705;DHT22;65807;44.726;37.764;2022-12-08T02:11:14;19.83;49.60
75705;DHT22;65807;44.726;37.764;2022-12-08T02:12:15;19.83;49.60
75705;DHT22;65807;44.726;37.764;2022-12-08T02:13:18;19.84;49.57
75705;DHT22;65807;44.726;37.764;2022-12-08T02:14:20;19.84;49.57
75705;DHT22;65807;44.726;37.764;2022-12-08T02:18:02;19.83;49.56
75705;DHT22;65807;44.726;37.764;2022-12-08T02:21:31;19.84;49.55
75705;DHT22;65807;44.726;37.764;2022-12-08T02:22:38;19.85;49.56
75705;DHT22;65807;44.726;37.764;2022-12-08T02:28:49;19.84;49.58
75705;DHT22;65807;44.726;37.764;2022-12-08T02:33:23;19.85;49.59
75705;DHT22;65807;44.726;37.764;2022-12-08T02:37:46;19.85;49.56
75705;DHT22;65807;44.726;37.764;2022-12-08T02:40:06;19.85;49.55
75705;DHT22;65807;44.726;37.764;2022-12-08T02:42:34;19.84;49.57
75705;DHT22;65807;44.726;37.764;2022-12-08T02:43:38;19.86;49.58
75705;DHT22;65807;44.726;37.764;2022-12-08T02:44:42;19.86;49.53
75705;DHT22;65807;44.726;37.764;2022-12-08T02:45:54;19.87;49.55
75705;DHT22;65807;44.726;37.764;2022-12-08T02:46:58;19.86;49.60
75705;DHT22;65807;44.726;37.764;2022-12-08T02:48:01;19.85;49.58
75705;DHT22;65807;44.726;37.764;2022-12-08T02:49:02;19.85;49.56
75705;DHT22;65807;44.726;37.764;2022-12-08T02:50:03;19.86;49.55
75705;DHT22;65807;44.726;37.764;2022-12-08T02:51:05;19.86;49.56
75705;DHT22;65807;44.726;37.764;2022-12-08T02:52:07;19.86;49.55
75705;DHT22;65807;44.726;37.764;2022-12-08T02:53:27;19.87;49.60
75705;DHT22;65807;44.726;37.764;2022-12-08T02:54:30;19.86;49.58
75705;DHT22;65807;44.726;37.764;2022-12-08T02:55:46;19.86;49.58
75705;DHT22;65807;44.726;37.764;2022-12-08T02:58:03;19.86;49.58
75705;DHT22;65807;44.726;37.764;2022-12-08T02:59:09;19.87;49.57
75705;DHT22;65807;44.726;37.764;2022-12-08T03:00:16;19.86;49.58
75705;DHT22;65807;44.726;37.764;2022-12-08T03:05:41;19.88;49.53
75705;DHT22;65807;44.726;37.764;2022-12-08T03:08:12;19.87;49.56
75705;DHT22;65807;44.726;37.764;2022-12-08T03:10:30;19.88;49.56
75705;DHT22;65807;44.726;37.764;2022-12-08T03:11:34;19.88;49.54
75705;DHT22;65807;44.726;37.764;2022-12-08T03:12:39;19.88;49.54
75705;DHT22;65807;44.726;37.764;2022-12-08T03:13:45;19.88;49.55
75705;DHT22;65807;44.726;37.764;2022-12-08T03:14:48;19.89;49.53
75705;DHT22;65807;44.726;37.764;2022-12-08T03:15:50;19.89;49.53
75705;DHT22;65807;44.726;37.764;2022-12-08T03:16:53;19.89;49.54
75705;DHT22;65807;44.726;37.764;2022-12-08T03:17:56;19.88;49.54
75705;DHT22;65807;44.726;37.764;2022-12-08T03:19:02;19.89;49.52
75705;DHT22;65807;44.726;37.764;2022-12-08T03:20:06;19.89;49.53
75705;DHT22;65807;44.726;37.764;2022-12-08T03:21:08;19.88;49.54
75705;DHT22;65807;44.726;37.764;2022-12-08T03:22:10;19.88;49.56
75705;DHT22;65807;44.726;37.764;2022-12-08T03:23:12;19.88;49.57
75705;DHT22;65807;44.726;37.764;2022-12-08T03:24:14;19.88;49.59
75705;DHT22;65807;44.726;37.764;2022-12-08T03:25:18;19.90;49.53
75705;DHT22;65807;44.726;37.764;2022-12-08T03:26:31;19.89;49.56
75705;DHT22;65807;44.726;37.764;2022-12-08T03:27:34;19.88;49.58
75705;DHT22;65807;44.726;37.764;2022-12-08T03:28:36;19.88;49.59
75705;DHT22;65807;44.726;37.764;2022-12-08T03:29:37;19.89;49.57
75705;DHT22;65807;44.726;37.764;2022-12-08T03:30:39;19.89;49.59
75705;DHT22;65807;44.726;37.764;2022-12-08T03:31:43;19.90;49.54
75705;DHT22;65807;44.726;37.764;2022-12-08T03:32:53;19.88;49.60
75705;DHT22;65807;44.726;37.764;2022-12-08T03:33:56;19.90;49.54
75705;DHT22;65807;44.726;37.764;2022-12-08T03:34:59;19.87;49.26
75705;DHT22;65807;44.726;37.764;2022-12-08T03:36:01;19.85;49.13
75705;DHT22;65807;44.726;37.764;2022-12-08T03:37:04;19.83;49.05
75705;DHT22;65807;44.726;37.764;2022-12-08T03:38:10;19.82;49.05
75705;DHT22;65807;44.726;37.764;2022-12-08T03:39:11;19.80;49.05
75705;DHT22;65807;44.726;37.764;2022-12-08T03:40:13;19.77;49.00
75705;DHT22;65807;44.726;37.764;2022-12-08T03:41:15;19.76;49.10
75705;DHT22;65807;44.726;37.764;2022-12-08T03:42:19;19.75;49.06
75705;DHT22;65807;44.726;37.764;2022-12-08T03:43:20;19.75;49.05
75705;DHT22;65807;44.726;37.764;2022-12-08T03:44:21;19.71;49.24
75705;DHT22;65807;44.726;37.764;2022-12-08T03:45:23;19.70;49.27
75705;DHT22;65807;44.726;37.764;2022-12-08T03:46:25;19.71;49.37
75705;DHT22;65807;44.726;37.764;2022-12-08T03:47:26;19.69;49.48
75705;DHT22;65807;44.726;37.764;2022-12-08T03:48:28;19.68;49.53
75705;DHT22;65807;44.726;37.764;2022-12-08T03:49:29;19.67;49.56
75705;DHT22;65807;44.726;37.764;2022-12-08T03:50:30;19.63;49.63
75705;DHT22;65807;44.726;37.764;2022-12-08T03:51:32;19.65;49.66
75705;DHT22;65807;44.726;37.764;2022-12-08T03:52:33;19.61;49.98
75705;DHT22;65807;44.726;37.764;2022-12-08T03:53:34;19.60;49.98
75705;DHT22;65807;44.726;37.764;2022-12-08T03:54:35;19.59;50.01
75705;DHT22;65807;44.726;37.764;2022-12-08T03:55:36;19.58;50.03
75705;DHT22;65807;44.726;37.764;2022-12-08T03:56:38;19.58;50.02
75705;DHT22;65807;44.726;37.764;2022-12-08T03:57:39;19.57;49.98
75705;DHT22;65807;44.726;37.764;2022-12-08T03:58:41;19.56;50.01
75705;DHT22;65807;44.726;37.764;2022-12-08T03:59:42;19.57;49.99
75705;DHT22;65807;44.726;37.764;2022-12-08T04:00:44;19.54;50.01
75705;DHT22;65807;44.726;37.764;2022-12-08T04:01:45;19.54;50.02
75705;DHT22;65807;44.726;37.764;2022-12-08T04:02:46;19.55;50.06
75705;DHT22;65807;44.726;37.764;2022-12-08T04:03:47;19.54;50.11
75705;DHT22;65807;44.726;37.764;2022-12-08T04:04:48;19.51;50.26
75705;DHT22;65807;44.726;37.764;2022-12-08T04:05:49;19.51;50.27
75705;DHT22;65807;44.726;37.764;2022-12-08T04:06:51;19.51;50.44
75705;DHT22;65807;44.726;37.764;2022-12-08T04:07:55;19.51;50.29
75705;DHT22;65807;44.726;37.764;2022-12-08T04:08:56;19.52;50.26
75705;DHT22;65807;44.726;37.764;2022-12-08T04:09:57;19.50;50.43
75705;DHT22;65807;44.726;37.764;2022-12-08T04:10:59;19.48;50.79
75705;DHT22;65807;44.726;37.764;2022-12-08T04:12:00;19.47;51.46
75705;DHT22;65807;44.726;37.764;2022-12-08T04:13:01;19.48;51.06
75705;DHT22;65807;44.726;37.764;2022-12-08T04:14:02;19.50;51.41
75705;DHT22;65807;44.726;37.764;2022-12-08T04:15:03;19.52;51.95
75705;DHT22;65807;44.726;37.764;2022-12-08T04:16:05;19.54;52.23
75705;DHT22;65807;44.726;37.764;2022-12-08T04:17:06;19.54;51.38
75705;DHT22;65807;44.726;37.764;2022-12-08T04:18:08;19.57;51.36
75705;DHT22;65807;44.726;37.764;2022-12-08T04:19:09;19.57;51.19
75705;DHT22;65807;44.726;37.764;2022-12-08T04:20:10;19.56;51.06
75705;DHT22;65807;44.726;37.764;2022-12-08T04:21:11;19.58;51.17
75705;DHT22;65807;44.726;37.764;2022-12-08T04:22:13;19.60;51.14
75705;DHT22;65807;44.726;37.764;2022-12-08T04:23:14;19.60;51.89
75705;DHT22;65807;44.726;37.764;2022-12-08T04:24:15;19.61;52.09
75705;DHT22;65807;44.726;37.764;2022-12-08T04:25:16;19.63;51.88
75705;DHT22;65807;44.726;37.764;2022-12-08T04:26:17;19.62;51.68
75705;DHT22;65807;44.726;37.764;2022-12-08T04:27:18;19.62;51.22
75705;DHT22;65807;44.726;37.764;2022-12-08T04:28:20;19.63;51.24
75705;DHT22;65807;44.726;37.764;2022-12-08T04:29:21;19.65;51.15
75705;DHT22;65807;44.726;37.764;2022-12-08T04:30:22;19.65;51.14
75705;DHT22;65807;44.726;37.764;2022-12-08T04:31:23;19.67;51.10
75705;DHT22;65807;44.726;37.764;2022-12-08T04:32:24;19.65;51.12
75705;DHT22;65807;44.726;37.764;2022-12-08T04:33:26;19.67;51.06
75705;DHT22;65807;44.726;37.764;2022-12-08T04:34:27;19.68;51.09
75705;DHT22;65807;44.726;37.764;2022-12-08T04:35:28;19.67;51.08
75705;DHT22;65807;44.726;37.764;2022-12-08T04:36:29;19.68;51.08
75705;DHT22;65807;44.726;37.764;2022-12-08T04:37:30;19.69;51.10
75705;DHT22;65807;44.726;37.764;2022-12-08T04:38:32;19.68;50.92
75705;DHT22;65807;44.726;37.764;2022-12-08T04:39:33;19.68;50.95
75705;DHT22;65807;44.726;37.764;2022-12-08T04:40:34;19.68;50.95
75705;DHT22;65807;44.726;37.764;2022-12-08T04:41:35;19.69;51.01
75705;DHT22;65807;44.726;37.764;2022-12-08T04:42:37;19.68;50.94
75705;DHT22;65807;44.726;37.764;2022-12-08T04:43:38;19.71;51.10
75705;DHT22;65807;44.726;37.764;2022-12-08T04:44:40;19.69;51.22
75705;DHT22;65807;44.726;37.764;2022-12-08T04:45:42;19.70;51.16
75705;DHT22;65807;44.726;37.764;2022-12-08T04:46:43;19.69;51.01
75705;DHT22;65807;44.726;37.764;2022-12-08T04:47:44;19.69;50.98
75705;DHT22;65807;44.726;37.764;2022-12-08T04:48:45;19.70;51.01
75705;DHT22;65807;44.726;37.764;2022-12-08T04:49:47;19.71;51.01
75705;DHT22;65807;44.726;37.764;2022-12-08T04:50:48;19.70;51.05
75705;DHT22;65807;44.726;37.764;2022-12-08T04:51:49;19.70;51.11
75705;DHT22;65807;44.726;37.764;2022-12-08T04:52:50;19.69;51.03
75705;DHT22;65807;44.726;37.764;2022-12-08T04:53:51;19.70;51.26
75705;DHT22;65807;44.726;37.764;2022-12-08T04:54:52;19.70;51.04
75705;DHT22;65807;44.726;37.764;2022-12-08T04:55:54;19.70;51.01
75705;DHT22;65807;44.726;37.764;2022-12-08T04:56:55;19.70;51.08
75705;DHT22;65807;44.726;37.764;2022-12-08T04:57:56;19.70;51.18
75705;DHT22;65807;44.726;37.764;2022-12-08T04:58:57;19.69;51.17
75705;DHT22;65807;44.726;37.764;2022-12-08T04:59:58;19.71;51.19
75705;DHT22;65807;44.726;37.764;2022-12-08T05:00:59;19.70;51.14
75705;DHT22;65807;44.726;37.764;2022-12-08T05:02:01;19.71;51.08
75705;DHT22;65807;44.726;37.764;2022-12-08T05:03:02;19.70;51.14
75705;DHT22;65807;44.726;37.764;2022-12-08T05:04:03;19.70;51.12
75705;DHT22;65807;44.726;37.764;2022-12-08T05:05:04;19.71;51.06
75705;DHT22;65807;44.726;37.764;2022-12-08T05:06:06;19.71;51.14
75705;DHT22;65807;44.726;37.764;2022-12-08T05:07:07;19.71;50.96
75705;DHT22;65807;44.726;37.764;2022-12-08T05:08:08;19.71;51.05
75705;DHT22;65807;44.726;37.764;2022-12-08T05:09:09;19.71;51.07
75705;DHT22;65807;44.726;37.764;2022-12-08T05:10:10;19.71;50.98
75705;DHT22;65807;44.726;37.764;2022-12-08T05:11:12;19.72;51.16
75705;DHT22;65807;44.726;37.764;2022-12-08T05:12:13;19.72;51.08
75705;DHT22;65807;44.726;37.764;2022-12-08T05:13:14;19.72;51.04
75705;DHT22;65807;44.726;37.764;2022-12-08T05:14:16;19.72;51.05
75705;DHT22;65807;44.726;37.764;2022-12-08T05:15:17;19.73;51.00
75705;DHT22;65807;44.726;37.764;2022-12-08T05:16:18;19.73;51.12
75705;DHT22;65807;44.726;37.764;2022-12-08T05:17:19;19.73;51.08
75705;DHT22;65807;44.726;37.764;2022-12-08T05:18:20;19.73;51.12
75705;DHT22;65807;44.726;37.764;2022-12-08T05:19:21;19.72;51.04
75705;DHT22;65807;44.726;37.764;2022-12-08T05:20:22;19.73;51.15
75705;DHT22;65807;44.726;37.764;2022-12-08T05:21:24;19.72;51.10
75705;DHT22;65807;44.726;37.764;2022-12-08T05:22:25;19.72;51.11
75705;DHT22;65807;44.726;37.764;2022-12-08T05:23:26;19.73;51.04
75705;DHT22;65807;44.726;37.764;2022-12-08T05:24:27;19.73;51.11
75705;DHT22;65807;44.726;37.764;2022-12-08T05:25:28;19.74;51.14
75705;DHT22;65807;44.726;37.764;2022-12-08T05:26:29;19.73;51.03
75705;DHT22;65807;44.726;37.764;2022-12-08T05:27:30;19.74;51.06
75705;DHT22;65807;44.726;37.764;2022-12-08T05:28:32;19.73;51.12
75705;DHT22;65807;44.726;37.764;2022-12-08T05:29:33;19.73;51.08
75705;DHT22;65807;44.726;37.764;2022-12-08T05:30:34;19.74;51.11
75705;DHT22;65807;44.726;37.764;2022-12-08T05:31:35;19.73;51.13
75705;DHT22;65807;44.726;37.764;2022-12-08T05:32:36;19.73;51.04
75705;DHT22;65807;44.726;37.764;2022-12-08T05:33:37;19.74;51.12
75705;DHT22;65807;44.726;37.764;2022-12-08T05:34:38;19.74;51.08
75705;DHT22;65807;44.726;37.764;2022-12-08T05:35:40;19.73;51.05
75705;DHT22;65807;44.726;37.764;2022-12-08T05:36:41;19.73;51.08
75705;DHT22;65807;44.726;37.764;2022-12-08T05:37:42;19.74;51.08
75705;DHT22;65807;44.726;37.764;2022-12-08T05:38:43;19.75;51.14
75705;DHT22;65807;44.726;37.764;2022-12-08T05:39:45;19.74;51.04
75705;DHT22;65807;44.726;37.764;2022-12-08T05:40:46;19.74;51.03
75705;DHT22;65807;44.726;37.764;2022-12-08T05:41:47;19.74;51.11
75705;DHT22;65807;44.726;37.764;2022-12-08T05:42:48;19.75;51.04
75705;DHT22;65807;44.726;37.764;2022-12-08T05:43:49;19.75;51.06
75705;DHT22;65807;44.726;37.764;2022-12-08T05:44:50;19.75;51.08
75705;DHT22;65807;44.726;37.764;2022-12-08T05:45:52;19.74;51.06
75705;DHT22;65807;44.726;37.764;2022-12-08T05:46:53;19.73;51.07
75705;DHT22;65807;44.726;37.764;2022-12-08T05:47:54;19.74;51.05
75705;DHT22;65807;44.726;37.764;2022-12-08T05:48:55;19.74;51.09
75705;DHT22;65807;44.726;37.764;2022-12-08T05:49:56;19.74;51.05
75705;DHT22;65807;44.726;37.764;2022-12-08T05:50:57;19.74;51.14
75705;DHT22;65807;44.726;37.764;2022-12-08T05:51:58;19.74;51.01
75705;DHT22;65807;44.726;37.764;2022-12-08T05:53:00;19.75;51.19
75705;DHT22;65807;44.726;37.764;2022-12-08T05:54:01;19.74;51.02
75705;DHT22;65807;44.726;37.764;2022-12-08T05:55:02;19.75;51.08
75705;DHT22;65807;44.726;37.764;2022-12-08T05:56:03;19.75;51.12
75705;DHT22;65807;44.726;37.764;2022-12-08T05:57:04;19.75;51.03
75705;DHT22;65807;44.726;37.764;2022-12-08T05:58:06;19.75;51.05
75705;DHT22;65807;44.726;37.764;2022-12-08T05:59:09;19.76;51.05
75705;DHT22;65807;44.726;37.764;2022-12-08T06:00:10;19.73;51.04
75705;DHT22;65807;44.726;37.764;2022-12-08T06:01:21;19.75;51.15
75705;DHT22;65807;44.726;37.764;2022-12-08T06:02:22;19.74;51.06
75705;DHT22;65807;44.726;37.764;2022-12-08T06:03:24;19.75;51.01
75705;DHT22;65807;44.726;37.764;2022-12-08T06:04:25;19.75;51.04
75705;DHT22;65807;44.726;37.764;2022-12-08T06:05:26;19.76;51.10
75705;DHT22;65807;44.726;37.764;2022-12-08T06:06:27;19.74;51.13
75705;DHT22;65807;44.726;37.764;2022-12-08T06:07:28;19.75;51.11
75705;DHT22;65807;44.726;37.764;2022-12-08T06:08:30;19.75;51.07
75705;DHT22;65807;44.726;37.764;2022-12-08T06:09:31;19.75;51.02
75705;DHT22;65807;44.726;37.764;2022-12-08T06:10:32;19.75;51.09
75705;DHT22;65807;44.726;37.764;2022-12-08T06:11:33;19.75;51.15
75705;DHT22;65807;44.726;37.764;2022-12-08T06:12:35;19.75;51.08
75705;DHT22;65807;44.726;37.764;2022-12-08T06:13:36;19.75;51.06
75705;DHT22;65807;44.726;37.764;2022-12-08T06:14:37;19.74;51.10
75705;DHT22;65807;44.726;37.764;2022-12-08T06:15:39;19.74;51.17
75705;DHT22;65807;44.726;37.764;2022-12-08T06:16:40;19.75;51.06
75705;DHT22;65807;44.726;37.764;2022-12-08T06:17:41;19.74;51.11
75705;DHT22;65807;44.726;37.764;2022-12-08T06:18:42;19.75;51.08
75705;DHT22;65807;44.726;37.764;2022-12-08T06:19:43;19.75;51.11
75705;DHT22;65807;44.726;37.764;2022-12-08T06:20:45;19.74;51.08
75705;DHT22;65807;44.726;37.764;2022-12-08T06:21:46;19.75;51.04
75705;DHT22;65807;44.726;37.764;2022-12-08T06:22:47;19.74;51.03
75705;DHT22;65807;44.726;37.764;2022-12-08T06:23:49;19.75;51.22
75705;DHT22;65807;44.726;37.764;2022-12-08T06:24:50;19.73;51.11
75705;DHT22;65807;44.726;37.764;2022-12-08T06:25:52;19.74;51.08
75705;DHT22;65807;44.726;37.764;2022-12-08T06:26:53;19.74;51.13
75705;DHT22;65807;44.726;37.764;2022-12-08T06:27:54;19.75;51.17
75705;DHT22;65807;44.726;37.764;2022-12-08T06:28:55;19.75;51.04
75705;DHT22;65807;44.726;37.764;2022-12-08T06:29:56;19.75;51.10
75705;DHT22;65807;44.726;37.764;2022-12-08T06:30:57;19.76;51.10
75705;DHT22;65807;44.726;37.764;2022-12-08T06:31:59;19.76;51.11
75705;DHT22;65807;44.726;37.764;2022-12-08T06:33:00;19.76;51.08
75705;DHT22;65807;44.726;37.764;2022-12-08T06:34:01;19.75;51.06
75705;DHT22;65807;44.726;37.764;2022-12-08T06:35:02;19.76;51.00
75705;DHT22;65807;44.726;37.764;2022-12-08T06:36:04;19.75;51.03
75705;DHT22;65807;44.726;37.764;2022-12-08T06:37:05;19.75;51.07
75705;DHT22;65807;44.726;37.764;2022-12-08T06:38:06;19.75;51.12
75705;DHT22;65807;44.726;37.764;2022-12-08T06:39:08;19.75;51.10
75705;DHT22;65807;44.726;37.764;2022-12-08T06:40:09;19.76;51.08
75705;DHT22;65807;44.726;37.764;2022-12-08T06:41:11;19.76;51.11
75705;DHT22;65807;44.726;37.764;2022-12-08T06:42:12;19.76;51.11
75705;DHT22;65807;44.726;37.764;2022-12-08T06:43:31;19.76;51.14
75705;DHT22;65807;44.726;37.764;2022-12-08T06:44:33;19.76;51.08
75705;DHT22;65807;44.726;37.764;2022-12-08T06:45:34;19.76;51.19
75705;DHT22;65807;44.726;37.764;2022-12-08T06:46:35;19.76;51.10
75705;DHT22;65807;44.726;37.764;2022-12-08T06:47:36;19.76;51.17
75705;DHT22;65807;44.726;37.764;2022-12-08T06:48:38;19.75;51.11
75705;DHT22;65807;44.726;37.764;2022-12-08T06:49:39;19.76;51.15
75705;DHT22;65807;44.726;37.764;2022-12-08T06:50:40;19.77;51.06
75705;DHT22;65807;44.726;37.764;2022-12-08T06:51:41;19.77;51.04
75705;DHT22;65807;44.726;37.764;2022-12-08T06:52:42;19.77;51.10
75705;DHT22;65807;44.726;37.764;2022-12-08T06:53:45;19.77;51.08
75705;DHT22;65807;44.726;37.764;2022-12-08T06:54:47;19.77;51.04
75705;DHT22;65807;44.726;37.764;2022-12-08T06:55:51;19.77;51.06